Time;durP1;ratioP1;P1;durP2;ratioP2;P2;SDS_P1;SDS_P2;PMS_P1;PMS_P2;Temp;Humidity;BMP_temperature;BMP_pressure;BME280_temperature;BME280_humidity;BME280_pressure;Samples;Min_cycle;Max_cycle;Signal;HPM_P1;HPM_P2
2021/07/15 00:02:17;;;;;;;0.30;0.10;;;;;;;14.25;100.00;95400.25;5035338;28;20480;-78
2021/07/15 00:04:42;;;;;;;1.00;0.10;;;;;;;14.27;100.00;95398.31;5036588;28;20884;-78
2021/07/15 00:07:08;;;;;;;0.57;0.20;;;;;;;14.32;100.00;95388.38;5036284;28;20419;-78
2021/07/15 00:09:34;;;;;;;1.80;0.13;;;;;;;14.40;100.00;95387.72;5036445;28;20414;-78
2021/07/15 00:11:59;;;;;;;1.30;0.20;;;;;;;14.33;100.00;95376.16;5036143;28;20418;-78
2021/07/15 00:14:25;;;;;;;1.30;0.20;;;;;;;14.32;100.00;95390.97;5035626;28;20419;-77
2021/07/15 00:16:53;;;;;;;0.10;0.00;;;;;;;14.33;100.00;95383.97;5033792;28;20422;-78
2021/07/15 00:19:20;;;;;;;0.17;0.10;;;;;;;14.31;100.00;95388.47;5036758;28;20454;-78
2021/07/15 00:21:46;;;;;;;0.63;0.13;;;;;;;14.34;100.00;95383.00;5037812;28;20651;-78
2021/07/15 00:24:11;;;;;;;0.30;0.10;;;;;;;14.40;100.00;95382.50;5040979;28;20764;-78
2021/07/15 00:26:37;;;;;;;0.90;0.10;;;;;;;14.29;100.00;95376.41;5040969;28;20438;-78
2021/07/15 00:29:03;;;;;;;0.20;0.10;;;;;;;14.34;100.00;95372.59;5043216;28;20515;-79
2021/07/15 00:31:28;;;;;;;0.30;0.10;;;;;;;14.32;100.00;95377.94;5042489;28;20472;-78
2021/07/15 00:33:53;;;;;;;0.20;0.10;;;;;;;14.29;100.00;95372.97;5040485;28;20491;-78
2021/07/15 00:36:21;;;;;;;0.20;0.10;;;;;;;14.24;100.00;95370.78;5041816;28;20422;-78
2021/07/15 00:38:46;;;;;;;0.20;0.00;;;;;;;14.23;100.00;95365.69;5041134;28;20426;-78
2021/07/15 00:41:12;;;;;;;0.40;0.10;;;;;;;14.23;100.00;95370.88;5041989;28;20490;-78
2021/07/15 00:43:37;;;;;;;0.37;0.07;;;;;;;14.20;100.00;95373.75;5041578;28;20450;-79
2021/07/15 00:46:03;;;;;;;0.10;0.00;;;;;;;14.18;100.00;95373.06;5039099;28;21003;-79
2021/07/15 00:48:28;;;;;;;0.90;0.10;;;;;;;14.19;100.00;95375.53;5038553;28;20534;-78
2021/07/15 00:50:54;;;;;;;0.43;0.03;;;;;;;14.22;100.00;95377.06;5041663;28;20440;-78
2021/07/15 00:53:21;;;;;;;0.90;0.20;;;;;;;14.22;100.00;95375.28;5038283;28;20934;-78
2021/07/15 00:55:46;;;;;;;3.22;0.17;;;;;;;14.21;100.00;95367.59;5022623;28;20905;-78
2021/07/15 00:58:14;;;;;;;0.13;0.03;;;;;;;14.19;100.00;95378.13;5019352;28;20431;-78
2021/07/15 01:00:45;;;;;;;0.77;0.20;;;;;;;14.14;100.00;95376.88;5017459;28;20926;-78
2021/07/15 01:03:11;;;;;;;0.30;0.10;;;;;;;14.12;100.00;95374.38;5016878;28;20416;-78
2021/07/15 01:05:39;;;;;;;0.20;0.10;;;;;;;14.13;100.00;95367.41;5014964;28;20434;-78
2021/07/15 01:08:06;;;;;;;0.70;0.17;;;;;;;14.18;100.00;95367.84;5013547;28;20417;-78
2021/07/15 01:10:35;;;;;;;0.20;0.00;;;;;;;14.13;100.00;95368.25;5014700;28;20417;-77
2021/07/15 01:13:15;;;;;;;1.20;0.17;;;;;;;14.09;100.00;95366.84;5014526;28;20463;-77
2021/07/15 01:16:03;;;;;;;0.63;0.10;;;;;;;14.14;100.00;95364.69;5014164;28;20444;-78
2021/07/15 01:18:41;;;;;;;0.47;0.10;;;;;;;14.08;100.00;95352.16;5013028;28;20764;-78
2021/07/15 01:21:36;;;;;;;0.35;0.10;;;;;;;14.12;100.00;95350.13;5014238;28;20875;-77
2021/07/15 01:24:55;;;;;;;0.40;0.00;;;;;;;14.13;100.00;95343.97;5014658;28;20790;-77
2021/07/15 01:27:43;;;;;;;0.03;0.03;;;;;;;14.12;100.00;95329.28;5012445;28;20442;-77
2021/07/15 01:30:12;;;;;;;0.52;0.08;;;;;;;14.07;100.00;95337.50;5013681;28;20428;-77
2021/07/15 01:32:46;;;;;;;1.10;0.10;;;;;;;13.98;100.00;95344.31;5012712;28;20424;-78
2021/07/15 01:35:15;;;;;;;0.52;0.03;;;;;;;13.93;100.00;95340.41;5015060;28;20421;-78
2021/07/15 01:37:44;;;;;;;0.20;0.10;;;;;;;13.89;100.00;95336.41;5018648;28;20841;-78
2021/07/15 01:40:13;;;;;;;0.63;0.08;;;;;;;13.87;100.00;95338.31;5018103;28;20444;-78
2021/07/15 01:42:39;;;;;;;0.50;0.10;;;;;;;13.91;100.00;95345.75;5016922;28;20443;-78
2021/07/15 01:45:06;;;;;;;0.52;0.08;;;;;;;13.82;100.00;95343.91;5017709;28;20428;-78
2021/07/15 01:47:33;;;;;;;1.80;0.20;;;;;;;13.78;100.00;95347.72;5016448;28;20428;-77
2021/07/15 01:50:00;;;;;;;0.08;0.03;;;;;;;13.61;100.00;95350.84;5012282;28;20425;-77
2021/07/15 01:52:26;;;;;;;0.70;0.10;;;;;;;13.61;100.00;95346.50;5013277;28;20883;-77
2021/07/15 01:54:52;;;;;;;1.00;0.10;;;;;;;13.54;100.00;95347.94;5013718;28;20424;-78
2021/07/15 01:57:19;;;;;;;0.20;0.10;;;;;;;13.65;100.00;95350.50;5016196;28;20423;-78
2021/07/15 01:59:46;;;;;;;2.10;0.10;;;;;;;13.67;100.00;95351.19;5017466;28;20432;-78
2021/07/15 02:02:15;;;;;;;1.17;0.30;;;;;;;13.65;100.00;95345.31;5016723;28;20420;-78
2021/07/15 02:04:43;;;;;;;0.60;0.20;;;;;;;13.54;100.00;95342.75;5018725;28;20416;-78
2021/07/15 02:07:10;;;;;;;0.20;0.10;;;;;;;13.57;100.00;95345.06;5016124;28;20488;-78
2021/07/15 02:09:37;;;;;;;0.93;0.13;;;;;;;13.60;100.00;95354.41;5015245;28;20922;-78
2021/07/15 02:12:03;;;;;;;2.05;0.20;;;;;;;13.64;100.00;95355.81;5013286;28;20424;-78
2021/07/15 02:14:29;;;;;;;0.20;0.10;;;;;;;13.71;100.00;95357.78;5013197;28;20409;-78
2021/07/15 02:16:59;;;;;;;0.10;0.00;;;;;;;13.80;100.00;95353.63;5011676;28;20417;-78
2021/07/15 02:19:26;;;;;;;0.85;0.20;;;;;;;13.76;100.00;95344.44;5012628;28;20431;-78
2021/07/15 02:21:55;;;;;;;0.50;0.20;;;;;;;13.86;100.00;95349.69;5012397;28;20431;-78
2021/07/15 02:24:23;;;;;;;0.50;0.10;;;;;;;13.89;100.00;95347.66;5013153;28;20867;-78
2021/07/15 02:26:51;;;;;;;1.75;0.20;;;;;;;13.80;100.00;95338.00;5012650;28;20424;-78
2021/07/15 02:29:18;;;;;;;0.90;0.20;;;;;;;13.68;100.00;95339.00;5023622;28;20412;-78
2021/07/15 02:31:48;;;;;;;0.45;0.13;;;;;;;13.78;100.00;95337.31;5034454;28;20425;-77
2021/07/15 02:34:20;;;;;;;3.50;0.20;;;;;;;13.83;100.00;95339.50;5035151;28;20400;-77
2021/07/15 02:36:46;;;;;;;0.60;0.10;;;;;;;13.73;100.00;95340.28;5030415;28;20425;-79
2021/07/15 02:39:13;;;;;;;0.20;0.00;;;;;;;13.66;100.00;95336.53;5019491;28;20444;-78
2021/07/15 02:41:39;;;;;;;0.88;0.15;;;;;;;13.71;100.00;95343.97;5017321;28;20419;-79
2021/07/15 02:44:05;;;;;;;2.77;0.20;;;;;;;13.70;100.00;95358.75;5016804;28;20416;-78
2021/07/15 02:46:31;;;;;;;2.45;0.30;;;;;;;13.68;100.00;95355.47;5015879;28;20427;-78
2021/07/15 02:48:56;;;;;;;0.32;0.20;;;;;;;13.71;100.00;95351.75;5016547;28;20413;-78
2021/07/15 02:51:22;;;;;;;0.75;0.22;;;;;;;13.68;100.00;95352.00;5016297;28;20485;-79
2021/07/15 02:53:47;;;;;;;2.85;0.25;;;;;;;13.67;100.00;95355.56;5014564;28;20448;-78
2021/07/15 02:56:21;;;;;;;2.55;0.35;;;;;;;13.62;100.00;95350.75;5014296;28;20435;-79
2021/07/15 02:58:57;;;;;;;0.45;0.10;;;;;;;13.58;100.00;95345.94;5013646;28;20425;-79
2021/07/15 03:01:25;;;;;;;0.10;0.10;;;;;;;13.60;100.00;95338.81;5015539;28;20794;-79
2021/07/15 03:03:58;;;;;;;1.75;0.20;;;;;;;13.54;100.00;95343.56;5014953;28;20846;-77
2021/07/15 03:06:31;;;;;;;0.80;0.13;;;;;;;13.52;100.00;95348.06;5014321;28;20511;-78
2021/07/15 03:09:00;;;;;;;0.60;0.20;;;;;;;13.58;100.00;95357.16;5014643;28;20413;-77
2021/07/15 03:11:36;;;;;;;0.88;0.15;;;;;;;13.63;100.00;95352.38;5012879;28;20452;-78
2021/07/15 03:14:03;;;;;;;1.47;0.20;;;;;;;13.59;100.00;95345.78;5014320;28;20440;-79
2021/07/15 03:16:30;;;;;;;0.40;0.28;;;;;;;13.64;100.00;95348.00;5012300;28;20416;-78
2021/07/15 03:18:57;;;;;;;0.85;0.10;;;;;;;13.67;100.00;95353.78;5012253;28;20424;-78
2021/07/15 03:21:24;;;;;;;2.20;0.40;;;;;;;13.55;100.00;95347.00;5013859;28;20421;-79
2021/07/15 03:23:53;;;;;;;1.30;0.20;;;;;;;13.64;100.00;95343.63;5012175;28;20472;-78
2021/07/15 03:26:18;;;;;;;0.70;0.20;;;;;;;13.64;100.00;95341.03;5011592;28;20425;-77
2021/07/15 03:28:48;;;;;;;2.00;0.20;;;;;;;13.70;100.00;95350.13;5013674;28;20501;-79
2021/07/15 03:31:15;;;;;;;0.80;0.20;;;;;;;13.62;100.00;95347.31;5013216;28;20419;-77
2021/07/15 03:33:41;;;;;;;3.50;0.40;;;;;;;13.49;100.00;95345.69;5011635;28;20752;-79
2021/07/15 03:36:09;;;;;;;3.08;0.20;;;;;;;13.48;100.00;95361.44;5012891;28;20470;-78
2021/07/15 03:38:38;;;;;;;1.48;0.40;;;;;;;13.46;100.00;95353.78;5012610;28;20428;-79
2021/07/15 03:41:06;;;;;;;1.98;0.30;;;;;;;13.50;100.00;95364.75;5013041;28;20504;-78
2021/07/15 03:43:33;;;;;;;0.47;0.13;;;;;;;13.58;100.00;95369.34;5011736;28;20413;-79
2021/07/15 03:46:01;;;;;;;0.90;0.30;;;;;;;13.60;100.00;95363.03;5011138;28;20471;-77
2021/07/15 03:48:28;;;;;;;0.90;0.20;;;;;;;13.56;100.00;95366.84;5012651;28;20929;-78
2021/07/15 03:50:57;;;;;;;1.17;0.17;;;;;;;13.61;100.00;95371.66;5011197;28;20439;-78
2021/07/15 03:53:23;;;;;;;0.90;0.20;;;;;;;13.68;100.00;95367.63;5015468;28;20417;-78
2021/07/15 03:55:50;;;;;;;1.85;0.35;;;;;;;13.67;100.00;95369.41;5016646;28;20483;-78
2021/07/15 03:58:16;;;;;;;0.70;0.20;;;;;;;13.61;100.00;95372.53;5016376;28;20520;-78
2021/07/15 04:00:45;;;;;;;3.55;0.20;;;;;;;13.58;100.00;95377.97;5014522;28;20833;-78
2021/07/15 04:03:17;;;;;;;0.80;0.20;;;;;;;13.69;100.00;95382.31;5015374;28;20555;-78
2021/07/15 04:05:44;;;;;;;6.70;0.32;;;;;;;13.70;100.00;95382.19;5015891;28;20409;-78
2021/07/15 04:08:10;;;;;;;0.85;0.20;;;;;;;13.66;100.00;95382.56;5014818;28;20503;-78
2021/07/15 04:10:39;;;;;;;2.58;0.30;;;;;;;13.67;100.00;95381.59;5014062;28;20447;-78
2021/07/15 04:13:05;;;;;;;1.00;0.20;;;;;;;13.69;100.00;95380.53;5016200;28;20421;-80
2021/07/15 04:15:43;;;;;;;0.60;0.22;;;;;;;13.75;100.00;95382.63;5015539;28;20455;-79
2021/07/15 04:18:13;;;;;;;0.40;0.20;;;;;;;13.80;100.00;95372.66;5015638;28;20448;-78
2021/07/15 04:20:41;;;;;;;0.65;0.20;;;;;;;13.87;100.00;95379.97;5013994;28;20420;-78
2021/07/15 04:23:07;;;;;;;1.42;0.20;;;;;;;13.92;100.00;95372.63;5012967;28;20782;-77
2021/07/15 04:25:34;;;;;;;1.48;0.38;;;;;;;13.93;100.00;95382.88;5011748;28;20455;-77
2021/07/15 04:28:03;;;;;;;1.40;0.30;;;;;;;13.95;100.00;95383.59;5012899;28;20451;-77
2021/07/15 04:30:29;;;;;;;1.20;0.25;;;;;;;13.96;100.00;95372.22;5013802;28;20966;-78
2021/07/15 04:32:56;;;;;;;1.52;0.35;;;;;;;14.02;100.00;95378.72;5014259;28;20917;-78
2021/07/15 04:35:25;;;;;;;1.33;0.40;;;;;;;13.95;100.00;95382.78;5014007;28;20416;-80
2021/07/15 04:37:51;;;;;;;1.00;0.30;;;;;;;14.02;100.00;95376.13;5015037;28;20494;-79
2021/07/15 04:40:19;;;;;;;3.40;0.35;;;;;;;13.95;100.00;95374.97;5015623;28;20504;-80
2021/07/15 04:42:47;;;;;;;1.00;0.40;;;;;;;13.95;100.00;95380.19;5018147;28;20425;-80
2021/07/15 04:45:15;;;;;;;2.20;0.50;;;;;;;13.93;100.00;95379.47;5018342;28;20513;-81
2021/07/15 04:47:43;;;;;;;3.22;0.47;;;;;;;13.86;100.00;95381.75;5020546;28;20437;-81
2021/07/15 04:50:11;;;;;;;1.10;0.40;;;;;;;13.94;100.00;95389.78;5021507;28;20433;-82
2021/07/15 04:53:14;;;;;;;1.73;0.40;;;;;;;13.92;100.00;95388.22;5019348;28;20919;-82
2021/07/15 04:56:30;;;;;;;0.30;0.20;;;;;;;14.05;100.00;95386.25;4964261;29;20951;-81
2021/07/15 04:59:15;;;;;;;1.20;0.45;;;;;;;14.09;100.00;95382.47;4965067;29;20461;-81
2021/07/15 05:01:41;;;;;;;1.30;0.40;;;;;;;14.12;100.00;95376.16;5005042;28;20429;-80
2021/07/15 05:04:07;;;;;;;4.28;0.50;;;;;;;14.11;100.00;95364.09;5019514;28;20420;-79
2021/07/15 05:06:33;;;;;;;0.90;0.32;;;;;;;14.08;100.00;95359.97;5017751;28;20452;-80
2021/07/15 05:09:00;;;;;;;0.50;0.20;;;;;;;13.98;100.00;95370.34;5013580;28;20418;-80
2021/07/15 05:11:25;;;;;;;0.98;0.40;;;;;;;14.00;100.00;95378.84;5020381;28;20508;-80
2021/07/15 05:13:51;;;;;;;1.03;0.30;;;;;;;13.97;100.00;95380.84;5019014;28;20934;-81
2021/07/15 05:16:16;;;;;;;1.48;0.50;;;;;;;14.01;100.00;95375.25;5020905;28;20763;-80
2021/07/15 05:18:42;;;;;;;0.93;0.32;;;;;;;14.04;100.00;95371.59;5020553;28;20464;-80
2021/07/15 05:21:08;;;;;;;0.85;0.40;;;;;;;13.96;100.00;95371.41;5021669;28;20416;-79
2021/07/15 05:23:33;;;;;;;0.63;0.30;;;;;;;13.93;100.00;95369.06;5021440;28;20462;-81
2021/07/15 05:26:00;;;;;;;1.30;0.20;;;;;;;13.99;100.00;95365.94;5021062;28;20432;-80
2021/07/15 05:28:26;;;;;;;0.93;0.30;;;;;;;13.96;100.00;95368.81;5034395;28;20422;-80
2021/07/15 05:30:53;;;;;;;1.00;0.50;;;;;;;13.95;100.00;95374.97;5037311;28;20466;-81
2021/07/15 05:33:18;;;;;;;2.03;0.43;;;;;;;13.86;100.00;95386.13;5030942;28;20440;-81
2021/07/15 05:35:44;;;;;;;3.63;0.40;;;;;;;13.88;100.00;95389.44;5027696;28;20412;-80
2021/07/15 05:38:10;;;;;;;1.03;0.20;;;;;;;13.70;100.00;95387.38;5031322;28;20433;-80
2021/07/15 05:40:36;;;;;;;2.80;0.30;;;;;;;13.75;100.00;95398.22;5030892;28;20417;-80
2021/07/15 05:43:03;;;;;;;1.35;0.30;;;;;;;13.81;100.00;95399.53;5028700;28;20480;-80
2021/07/15 05:45:29;;;;;;;2.10;0.30;;;;;;;13.84;100.00;95391.47;5027808;28;20428;-80
2021/07/15 05:47:54;;;;;;;0.97;0.30;;;;;;;13.91;100.00;95404.81;5029533;28;20415;-80
2021/07/15 05:50:20;;;;;;;3.50;0.40;;;;;;;13.98;100.00;95409.38;5027412;28;20412;-81
2021/07/15 05:52:45;;;;;;;1.40;0.40;;;;;;;14.04;100.00;95406.25;5029497;28;20416;-80
2021/07/15 05:55:11;;;;;;;2.43;0.37;;;;;;;14.07;100.00;95409.59;5025923;28;20412;-80
2021/07/15 05:57:36;;;;;;;2.42;0.30;;;;;;;14.15;100.00;95407.97;5024806;28;20435;-82
2021/07/15 06:00:06;;;;;;;1.40;0.30;;;;;;;14.20;100.00;95415.41;5022728;28;20421;-81
2021/07/15 06:02:32;;;;;;;0.43;0.20;;;;;;;14.27;100.00;95421.75;5020518;28;20435;-81
2021/07/15 06:04:57;;;;;;;0.50;0.20;;;;;;;14.35;100.00;95421.13;5023228;28;20417;-81
2021/07/15 06:07:23;;;;;;;0.35;0.20;;;;;;;14.31;100.00;95414.53;5021334;28;20493;-82
2021/07/15 06:09:48;;;;;;;2.80;0.30;;;;;;;14.36;100.00;95420.19;5022571;28;20482;-81
2021/07/15 06:12:13;;;;;;;1.20;0.40;;;;;;;14.33;100.00;95423.88;5021205;28;20455;-79
2021/07/15 06:14:39;;;;;;;0.60;0.20;;;;;;;14.48;100.00;95419.16;5010584;28;20434;-80
2021/07/15 06:17:05;;;;;;;2.33;0.28;;;;;;;14.65;100.00;95423.81;5000063;28;20423;-80
2021/07/15 06:19:31;;;;;;;0.80;0.30;;;;;;;14.69;100.00;95427.81;4999323;28;20520;-82
2021/07/15 06:21:57;;;;;;;1.52;0.40;;;;;;;14.67;100.00;95432.31;5012985;28;20453;-81
2021/07/15 06:24:22;;;;;;;1.10;0.20;;;;;;;14.82;100.00;95438.00;4995159;28;20434;-81
2021/07/15 06:26:48;;;;;;;0.97;0.13;;;;;;;14.81;100.00;95427.72;5013347;28;20421;-81
2021/07/15 06:29:13;;;;;;;0.47;0.20;;;;;;;14.96;100.00;95434.25;5015254;28;20452;-82
2021/07/15 06:31:39;;;;;;;2.50;0.30;;;;;;;15.07;100.00;95441.97;5020656;28;20421;-81
2021/07/15 06:34:06;;;;;;;1.60;0.30;;;;;;;15.14;100.00;95437.06;5028253;28;20872;-77
2021/07/15 06:36:32;;;;;;;1.65;0.20;;;;;;;15.17;100.00;95444.63;5035292;28;20415;-79
2021/07/15 06:38:58;;;;;;;0.95;0.25;;;;;;;15.15;100.00;95438.69;5035032;28;20415;-79
2021/07/15 06:41:24;;;;;;;0.30;0.20;;;;;;;15.19;100.00;95435.69;5031391;28;20856;-72
2021/07/15 06:43:49;;;;;;;2.10;0.20;;;;;;;15.15;100.00;95438.69;5022046;28;20428;-73
2021/07/15 06:46:15;;;;;;;2.70;0.30;;;;;;;14.94;100.00;95439.59;5011421;28;20838;-72
2021/07/15 06:48:40;;;;;;;1.10;0.30;;;;;;;15.01;100.00;95445.09;5011771;28;20958;-72
2021/07/15 06:51:08;;;;;;;0.85;0.25;;;;;;;15.21;100.00;95446.00;5011672;28;20413;-72
2021/07/15 06:53:34;;;;;;;4.60;0.30;;;;;;;15.29;100.00;95427.91;5011636;28;20467;-71
2021/07/15 06:55:59;;;;;;;0.47;0.28;;;;;;;15.39;100.00;95430.53;5011450;28;20421;-73
2021/07/15 06:58:25;;;;;;;0.85;0.20;;;;;;;15.30;100.00;95424.31;5011576;28;20938;-72
2021/07/15 07:00:50;;;;;;;0.40;0.20;;;;;;;15.28;100.00;95421.03;5011524;28;20408;-72
2021/07/15 07:03:16;;;;;;;1.47;0.40;;;;;;;15.19;100.00;95417.44;5011662;28;20423;-72
2021/07/15 07:05:41;;;;;;;1.70;0.40;;;;;;;15.20;100.00;95413.03;5011154;28;20500;-70
2021/07/15 07:08:10;;;;;;;1.50;0.40;;;;;;;15.03;100.00;95411.91;5010451;28;22295;-70
2021/07/15 07:10:35;;;;;;;1.85;0.50;;;;;;;15.15;100.00;95428.28;5011617;28;20482;-73
2021/07/15 07:13:01;;;;;;;0.50;0.30;;;;;;;15.24;100.00;95427.50;5010907;28;20890;-75
2021/07/15 07:15:26;;;;;;;1.40;0.30;;;;;;;15.32;100.00;95419.00;5009961;28;20466;-73
2021/07/15 07:17:52;;;;;;;2.10;0.30;;;;;;;15.48;100.00;95424.50;5011055;28;20440;-73
2021/07/15 07:20:17;;;;;;;1.70;0.60;;;;;;;15.56;100.00;95426.44;5011611;28;20884;-74
2021/07/15 07:22:46;;;;;;;4.55;0.50;;;;;;;15.59;100.00;95432.22;5011461;28;20491;-74
2021/07/15 07:25:14;;;;;;;1.52;0.40;;;;;;;15.49;100.00;95431.38;5009816;28;20417;-75
2021/07/15 07:27:40;;;;;;;1.40;0.25;;;;;;;15.66;100.00;95427.31;5011354;28;20427;-75
2021/07/15 07:30:08;;;;;;;0.40;0.20;;;;;;;15.88;100.00;95424.44;5011141;28;20416;-74
2021/07/15 07:32:34;;;;;;;0.47;0.10;;;;;;;16.06;100.00;95421.16;5011319;28;20502;-75
2021/07/15 07:35:00;;;;;;;0.40;0.20;;;;;;;16.13;100.00;95423.06;5011507;28;20417;-75
2021/07/15 07:37:28;;;;;;;0.40;0.30;;;;;;;16.37;100.00;95424.41;5013625;28;20499;-77
2021/07/15 07:39:54;;;;;;;0.80;0.20;;;;;;;16.47;100.00;95430.47;5014526;28;20429;-77
2021/07/15 07:42:21;;;;;;;2.10;0.30;;;;;;;16.59;100.00;95425.88;5012936;28;20428;-77
2021/07/15 07:44:46;;;;;;;0.28;0.10;;;;;;;16.35;100.00;95437.63;5013743;28;20428;-76
2021/07/15 07:47:11;;;;;;;0.82;0.20;;;;;;;16.37;100.00;95438.31;5013223;28;20417;-77
2021/07/15 07:49:37;;;;;;;0.50;0.20;;;;;;;16.24;100.00;95434.31;5012303;28;20444;-79
2021/07/15 07:52:03;;;;;;;0.30;0.10;;;;;;;16.34;100.00;95437.75;5015628;28;20428;-78
2021/07/15 07:54:28;;;;;;;0.30;0.20;;;;;;;16.40;100.00;95438.03;5012921;28;20574;-77
2021/07/15 07:56:54;;;;;;;0.77;0.20;;;;;;;16.40;100.00;95445.03;5011739;28;20455;-79
2021/07/15 07:59:20;;;;;;;3.80;0.30;;;;;;;16.45;100.00;95445.44;5013029;28;20503;-79
2021/07/15 08:01:46;;;;;;;2.40;0.45;;;;;;;16.24;100.00;95447.38;5011247;28;20541;-80
2021/07/15 08:04:12;;;;;;;0.40;0.20;;;;;;;16.14;100.00;95450.03;5011680;28;20504;-79
2021/07/15 08:06:38;;;;;;;0.50;0.20;;;;;;;15.84;100.00;95456.19;5014722;28;20926;-77
2021/07/15 08:09:04;;;;;;;0.80;0.30;;;;;;;15.71;100.00;95453.84;5014387;28;20419;-79
2021/07/15 08:11:31;;;;;;;0.20;0.10;;;;;;;15.54;100.00;95452.69;5013716;28;20505;-79
2021/07/15 08:13:56;;;;;;;13.90;0.20;;;;;;;15.57;100.00;95460.22;5023226;28;20488;-79
2021/07/15 08:16:23;;;;;;;0.10;0.00;;;;;;;15.78;100.00;95465.38;5035026;28;20485;-79
2021/07/15 08:18:48;;;;;;;0.32;0.20;;;;;;;15.83;100.00;95473.63;5035486;28;20427;-79
2021/07/15 08:21:18;;;;;;;0.40;0.20;;;;;;;15.85;100.00;95468.28;5039132;28;20411;-79
2021/07/15 08:23:44;;;;;;;0.50;0.20;;;;;;;15.96;100.00;95470.78;5036164;28;20994;-79
2021/07/15 08:26:10;;;;;;;0.30;0.30;;;;;;;16.13;100.00;95472.72;5037688;28;20407;-78
2021/07/15 08:28:35;;;;;;;0.20;0.10;;;;;;;16.34;100.00;95475.16;5041286;28;20513;-79
2021/07/15 08:31:01;;;;;;;0.40;0.10;;;;;;;16.48;100.00;95487.00;5053078;28;20429;-78
2021/07/15 08:33:28;;;;;;;0.10;0.10;;;;;;;16.55;100.00;95480.25;5056291;28;21011;-78
2021/07/15 08:38:28;;;;;;;3.22;0.32;;;;;;;16.93;100.00;95483.75;5104735;23;20424;-80
2021/07/15 08:40:54;;;;;;;0.73;0.30;;;;;;;16.42;100.00;95483.13;5015605;28;20508;-79
2021/07/15 08:43:21;;;;;;;0.70;0.20;;;;;;;16.75;100.00;95491.50;5021972;28;20441;-78
2021/07/15 08:48:14;;;;;;;0.55;0.10;;;;;;;16.39;100.00;95495.69;5014842;28;20432;-76
2021/07/15 08:50:41;;;;;;;0.20;0.10;;;;;;;16.17;100.00;95495.00;5016948;28;20510;-78
2021/07/15 08:53:07;;;;;;;0.10;0.10;;;;;;;16.10;100.00;95493.88;5016282;28;20590;-78
2021/07/15 08:58:12;;;;;;;0.22;0.20;;;;;;;16.21;100.00;95495.53;5017949;28;20503;-81
2021/07/15 09:00:38;;;;;;;0.10;0.10;;;;;;;16.07;100.00;95496.75;5002421;28;20450;-79
2021/07/15 09:03:04;;;;;;;1.08;0.20;;;;;;;15.83;100.00;95491.09;4994999;28;20504;-79
2021/07/15 09:05:30;;;;;;;1.23;0.32;;;;;;;15.75;100.00;95490.94;5025371;28;20411;-78
2021/07/15 09:07:56;;;;;;;0.63;0.30;;;;;;;16.11;100.00;95505.16;5032949;28;20422;-79
2021/07/15 09:10:22;;;;;;;0.20;0.10;;;;;;;16.40;100.00;95499.94;5027510;28;20473;-80
2021/07/15 09:12:47;;;;;;;0.22;0.10;;;;;;;16.57;100.00;95509.66;5024465;28;20420;-77
2021/07/15 09:15:14;;;;;;;0.10;0.10;;;;;;;16.82;100.00;95505.69;5012641;28;20477;-79
2021/07/15 09:17:40;;;;;;;0.20;0.10;;;;;;;17.07;100.00;95506.84;5017812;28;20428;-79
2021/07/15 09:20:08;;;;;;;0.10;0.10;;;;;;;17.40;100.00;95510.72;5021751;28;20420;-81
2021/07/15 09:22:33;;;;;;;0.50;0.10;;;;;;;17.73;100.00;95505.06;5017876;28;20456;-80
2021/07/15 09:25:01;;;;;;;0.60;0.20;;;;;;;18.09;100.00;95506.78;5004641;28;20484;-80
2021/07/15 09:27:28;;;;;;;0.20;0.15;;;;;;;18.41;100.00;95510.69;4997317;28;20413;-79
2021/07/15 09:30:07;;;;;;;1.00;0.20;;;;;;;18.82;100.00;95511.84;4995680;28;20418;-80
2021/07/15 09:32:33;;;;;;;0.30;0.20;;;;;;;18.05;94.83;95507.22;4997185;28;20426;-79
2021/07/15 09:35:02;;;;;;;0.10;0.10;;;;;;;18.47;97.36;95509.28;4993750;28;21103;-78
2021/07/15 09:37:33;;;;;;;0.98;0.30;;;;;;;18.46;97.54;95510.22;4994577;28;20517;-79
2021/07/15 09:40:00;;;;;;;0.10;0.10;;;;;;;18.27;100.00;95508.59;5015012;28;20425;-78
2021/07/15 09:42:25;;;;;;;0.20;0.10;;;;;;;17.79;96.79;95514.97;5015111;28;20431;-78
2021/07/15 09:44:52;;;;;;;0.10;0.10;;;;;;;17.81;100.00;95506.00;5005306;28;20430;-78
2021/07/15 09:47:36;;;;;;;0.70;0.20;;;;;;;18.13;100.00;95509.91;4997403;28;20797;-78
2021/07/15 09:50:21;;;;;;;0.32;0.30;;;;;;;18.10;96.65;95499.75;4996145;28;20453;-77
2021/07/15 09:52:46;;;;;;;0.20;0.20;;;;;;;18.07;97.06;95513.16;4995530;28;20417;-79
2021/07/15 09:55:21;;;;;;;0.57;0.23;;;;;;;17.97;99.00;95507.97;5013494;28;20421;-77
2021/07/15 09:57:47;;;;;;;0.45;0.17;;;;;;;18.05;97.67;95509.84;5013059;28;20464;-77
2021/07/15 10:00:14;;;;;;;0.60;0.22;;;;;;;17.83;98.45;95505.84;5008342;28;20421;-76
2021/07/15 10:02:40;;;;;;;0.35;0.20;;;;;;;17.74;99.73;95525.88;5016089;28;20427;-80
2021/07/15 10:05:11;;;;;;;0.32;0.20;;;;;;;18.11;97.43;95523.19;5016798;28;20436;-75
2021/07/15 10:07:37;;;;;;;0.13;0.10;;;;;;;17.79;95.68;95521.03;5011203;28;20438;-80
2021/07/15 10:10:15;;;;;;;0.30;0.30;;;;;;;17.71;98.46;95525.34;5014294;28;20783;-80
2021/07/15 10:12:43;;;;;;;0.30;0.20;;;;;;;18.22;98.97;95529.19;5016075;28;20483;-79
2021/07/15 10:15:10;;;;;;;0.30;0.30;;;;;;;17.97;97.08;95520.25;5015115;28;20429;-79
2021/07/15 10:17:39;;;;;;;0.30;0.30;;;;;;;17.82;97.04;95525.97;5014464;28;20424;-79
2021/07/15 10:20:09;;;;;;;0.40;0.30;;;;;;;17.72;96.80;95525.19;5014434;28;20428;-79
2021/07/15 10:22:34;;;;;;;2.72;0.40;;;;;;;17.39;100.00;95529.19;5013507;28;20791;-77
2021/07/15 10:25:00;;;;;;;0.33;0.20;;;;;;;17.32;100.00;95530.75;5012608;28;20415;-78
2021/07/15 10:27:25;;;;;;;0.30;0.30;;;;;;;17.40;100.00;95523.81;5012636;28;20432;-79
2021/07/15 10:29:54;;;;;;;0.50;0.40;;;;;;;17.50;100.00;95529.03;5013056;28;20413;-79
2021/07/15 10:32:21;;;;;;;0.30;0.25;;;;;;;17.27;100.00;95532.97;5013845;28;20475;-79
2021/07/15 10:34:52;;;;;;;0.30;0.30;;;;;;;17.26;100.00;95531.31;5014026;28;20435;-79
2021/07/15 10:37:19;;;;;;;0.80;0.52;;;;;;;17.04;100.00;95535.91;5013680;28;20427;-79
2021/07/15 10:39:45;;;;;;;0.60;0.40;;;;;;;17.05;100.00;95532.31;5014779;28;20432;-80
2021/07/15 10:42:11;;;;;;;0.50;0.40;;;;;;;17.17;100.00;95527.78;5017278;28;20428;-81
2021/07/15 10:44:37;;;;;;;0.93;0.38;;;;;;;16.98;100.00;95526.00;5007111;28;20766;-80
2021/07/15 10:47:04;;;;;;;0.40;0.40;;;;;;;17.17;100.00;95533.00;4994810;28;20471;-80
2021/07/15 10:49:30;;;;;;;0.82;0.40;;;;;;;17.03;100.00;95531.66;5010521;28;20421;-80
2021/07/15 10:52:00;;;;;;;0.50;0.30;;;;;;;17.14;100.00;95535.91;5008161;28;20420;-78
2021/07/15 10:54:27;;;;;;;1.15;0.40;;;;;;;17.14;100.00;95528.88;4992151;28;20426;-79
2021/07/15 10:56:53;;;;;;;0.50;0.35;;;;;;;17.18;98.49;95537.25;4993160;28;20426;-79
2021/07/15 10:59:24;;;;;;;0.30;0.30;;;;;;;17.06;98.92;95536.63;4992896;28;20807;-78
2021/07/15 11:01:50;;;;;;;0.60;0.40;;;;;;;17.28;97.23;95538.06;4998779;28;20430;-80
2021/07/15 11:04:21;;;;;;;1.30;0.50;;;;;;;17.56;97.67;95540.69;4998703;28;20438;-78
2021/07/15 11:06:49;;;;;;;0.70;0.50;;;;;;;17.70;97.51;95542.03;4997599;28;20425;-79
2021/07/15 11:09:26;;;;;;;0.40;0.30;;;;;;;17.45;94.34;95553.97;5014239;28;20520;-79
2021/07/15 11:11:52;;;;;;;1.08;0.50;;;;;;;17.41;96.63;95553.44;5012963;28;20429;-78
2021/07/15 11:14:35;;;;;;;0.55;0.35;;;;;;;17.29;95.43;95551.97;5012698;28;20413;-78
2021/07/15 11:17:02;;;;;;;0.60;0.60;;;;;;;17.33;96.41;95555.94;5003826;28;20462;-77
2021/07/15 11:19:57;;;;;;;1.20;0.40;;;;;;;17.30;94.10;95557.06;4991744;28;20517;-77
2021/07/15 11:22:34;;;;;;;0.57;0.52;;;;;;;17.13;95.87;95563.00;4991665;28;20505;-77
2021/07/15 11:25:01;;;;;;;0.30;0.30;;;;;;;17.16;96.72;95563.56;4990762;28;20842;-78
2021/07/15 11:27:37;;;;;;;0.60;0.50;;;;;;;17.18;96.50;95563.44;4998406;28;20435;-78
2021/07/15 11:30:04;;;;;;;0.70;0.50;;;;;;;17.09;97.86;95562.50;5009955;28;20445;-76
2021/07/15 11:32:30;;;;;;;0.90;0.65;;;;;;;17.20;98.32;95558.88;5012494;28;20421;-77
2021/07/15 11:34:57;;;;;;;0.73;0.60;;;;;;;17.02;96.05;95557.94;5022496;28;20430;-81
2021/07/15 11:37:36;;;;;;;0.85;0.40;;;;;;;17.04;96.64;95561.25;5021471;28;20433;-78
2021/07/15 11:40:05;;;;;;;0.57;0.57;;;;;;;17.25;99.47;95556.66;5018813;28;20430;-77